sensor_id;sensor_type;location;lat;lon;timestamp;temperature;humidity
28175;SHT30;59417;44.788;10.334;2023-04-24T00:00:05;17.05;62.51
28175;SHT30;59417;44.788;10.334;2023-04-24T00:02:32;16.82;63.63
28175;SHT30;59417;44.788;10.334;2023-04-24T00:04:58;16.94;63.07
28175;SHT30;59417;44.788;10.334;2023-04-24T00:07:29;17.16;62.69
28175;SHT30;59417;44.788;10.334;2023-04-24T00:09:54;17.31;62.66
28175;SHT30;59417;44.788;10.334;2023-04-24T00:12:20;17.40;62.08
28175;SHT30;59417;44.788;10.334;2023-04-24T00:14:46;17.43;62.20
28175;SHT30;59417;44.788;10.334;2023-04-24T00:17:12;17.47;62.68
28175;SHT30;59417;44.788;10.334;2023-04-24T00:19:38;17.39;62.98
28175;SHT30;59417;44.788;10.334;2023-04-24T00:22:03;17.51;61.88
28175;SHT30;59417;44.788;10.334;2023-04-24T00:24:29;17.47;61.42
28175;SHT30;59417;44.788;10.334;2023-04-24T00:26:55;17.39;63.80
28175;SHT30;59417;44.788;10.334;2023-04-24T00:29:20;17.08;66.06
28175;SHT30;59417;44.788;10.334;2023-04-24T00:31:46;16.95;68.23
28175;SHT30;59417;44.788;10.334;2023-04-24T00:34:13;16.94;69.88
28175;SHT30;59417;44.788;10.334;2023-04-24T00:36:39;16.92;70.50
28175;SHT30;59417;44.788;10.334;2023-04-24T00:39:04;16.98;70.77
28175;SHT30;59417;44.788;10.334;2023-04-24T00:41:30;16.99;72.52
28175;SHT30;59417;44.788;10.334;2023-04-24T00:43:56;16.69;73.93
28175;SHT30;59417;44.788;10.334;2023-04-24T00:46:22;16.48;74.52
28175;SHT30;59417;44.788;10.334;2023-04-24T00:48:47;16.30;75.77
28175;SHT30;59417;44.788;10.334;2023-04-24T00:51:13;16.21;77.14
28175;SHT30;59417;44.788;10.334;2023-04-24T00:53:39;16.06;77.53
28175;SHT30;59417;44.788;10.334;2023-04-24T00:56:05;16.13;76.98
28175;SHT30;59417;44.788;10.334;2023-04-24T00:58:31;16.31;77.38
28175;SHT30;59417;44.788;10.334;2023-04-24T01:00:57;16.40;77.31
28175;SHT30;59417;44.788;10.334;2023-04-24T01:03:30;16.58;76.98
28175;SHT30;59417;44.788;10.334;2023-04-24T01:05:57;16.54;76.71
28175;SHT30;59417;44.788;10.334;2023-04-24T01:08:24;16.69;77.00
28175;SHT30;59417;44.788;10.334;2023-04-24T01:10:52;16.68;76.92
28175;SHT30;59417;44.788;10.334;2023-04-24T01:13:19;16.78;77.10
28175;SHT30;59417;44.788;10.334;2023-04-24T01:15:45;16.79;77.32
28175;SHT30;59417;44.788;10.334;2023-04-24T01:18:11;16.86;77.00
28175;SHT30;59417;44.788;10.334;2023-04-24T01:20:39;16.75;75.84
28175;SHT30;59417;44.788;10.334;2023-04-24T01:23:08;16.86;75.43
28175;SHT30;59417;44.788;10.334;2023-04-24T01:25:35;16.85;75.55
28175;SHT30;59417;44.788;10.334;2023-04-24T01:28:01;16.80;76.29
28175;SHT30;59417;44.788;10.334;2023-04-24T01:30:27;16.61;77.35
28175;SHT30;59417;44.788;10.334;2023-04-24T01:32:53;16.57;77.71
28175;SHT30;59417;44.788;10.334;2023-04-24T01:35:19;16.64;77.66
28175;SHT30;59417;44.788;10.334;2023-04-24T01:37:45;16.69;75.93
28175;SHT30;59417;44.788;10.334;2023-04-24T01:40:11;16.84;73.33
28175;SHT30;59417;44.788;10.334;2023-04-24T01:42:37;16.86;71.94
28175;SHT30;59417;44.788;10.334;2023-04-24T01:45:04;16.73;72.83
28175;SHT30;59417;44.788;10.334;2023-04-24T01:47:33;16.71;73.38
28175;SHT30;59417;44.788;10.334;2023-04-24T01:49:59;16.73;73.53
28175;SHT30;59417;44.788;10.334;2023-04-24T01:52:24;16.65;73.59
28175;SHT30;59417;44.788;10.334;2023-04-24T01:54:52;16.51;74.65
28175;SHT30;59417;44.788;10.334;2023-04-24T01:57:17;16.23;75.21
28175;SHT30;59417;44.788;10.334;2023-04-24T01:59:43;16.35;76.48
28175;SHT30;59417;44.788;10.334;2023-04-24T02:02:09;16.30;75.60
28175;SHT30;59417;44.788;10.334;2023-04-24T02:04:34;16.28;74.53
28175;SHT30;59417;44.788;10.334;2023-04-24T02:07:00;16.37;75.19
28175;SHT30;59417;44.788;10.334;2023-04-24T02:09:26;16.01;74.42
28175;SHT30;59417;44.788;10.334;2023-04-24T02:11:51;16.13;75.97
28175;SHT30;59417;44.788;10.334;2023-04-24T02:14:17;16.18;76.12
28175;SHT30;59417;44.788;10.334;2023-04-24T02:16:43;16.17;74.16
28175;SHT30;59417;44.788;10.334;2023-04-24T02:19:09;16.16;74.40
28175;SHT30;59417;44.788;10.334;2023-04-24T02:21:35;15.96;74.22
28175;SHT30;59417;44.788;10.334;2023-04-24T02:24:01;15.83;74.50
28175;SHT30;59417;44.788;10.334;2023-04-24T02:26:27;15.90;75.46
28175;SHT30;59417;44.788;10.334;2023-04-24T02:28:53;15.84;75.63
28175;SHT30;59417;44.788;10.334;2023-04-24T02:31:19;15.87;76.18
28175;SHT30;59417;44.788;10.334;2023-04-24T02:33:47;15.74;76.58
28175;SHT30;59417;44.788;10.334;2023-04-24T02:36:13;15.52;76.59
28175;SHT30;59417;44.788;10.334;2023-04-24T02:38:39;15.53;75.96
28175;SHT30;59417;44.788;10.334;2023-04-24T02:41:05;15.66;75.92
28175;SHT30;59417;44.788;10.334;2023-04-24T02:43:32;15.74;76.85
28175;SHT30;59417;44.788;10.334;2023-04-24T02:45:59;15.52;78.01
28175;SHT30;59417;44.788;10.334;2023-04-24T02:48:25;15.46;78.94
28175;SHT30;59417;44.788;10.334;2023-04-24T02:50:51;15.56;78.28
28175;SHT30;59417;44.788;10.334;2023-04-24T02:53:17;15.53;77.41
28175;SHT30;59417;44.788;10.334;2023-04-24T02:55:42;15.49;77.76
28175;SHT30;59417;44.788;10.334;2023-04-24T02:58:08;15.58;77.97
28175;SHT30;59417;44.788;10.334;2023-04-24T03:00:34;15.65;78.38
28175;SHT30;59417;44.788;10.334;2023-04-24T03:03:00;15.80;78.20
28175;SHT30;59417;44.788;10.334;2023-04-24T03:05:25;15.84;77.79
28175;SHT30;59417;44.788;10.334;2023-04-24T03:07:52;15.72;78.34
28175;SHT30;59417;44.788;10.334;2023-04-24T03:10:20;15.73;78.45
28175;SHT30;59417;44.788;10.334;2023-04-24T03:12:48;15.79;78.37
28175;SHT30;59417;44.788;10.334;2023-04-24T03:15:14;15.70;78.47
28175;SHT30;59417;44.788;10.334;2023-04-24T03:17:41;15.73;78.11
28175;SHT30;59417;44.788;10.334;2023-04-24T03:20:08;15.84;78.21
28175;SHT30;59417;44.788;10.334;2023-04-24T03:22:35;15.94;77.79
28175;SHT30;59417;44.788;10.334;2023-04-24T03:25:04;16.06;78.01
28175;SHT30;59417;44.788;10.334;2023-04-24T03:27:30;15.86;78.33
28175;SHT30;59417;44.788;10.334;2023-04-24T03:30:01;15.59;79.73
28175;SHT30;59417;44.788;10.334;2023-04-24T03:32:47;15.61;79.21
28175;SHT30;59417;44.788;10.334;2023-04-24T03:35:18;15.63;78.32
28175;SHT30;59417;44.788;10.334;2023-04-24T03:37:44;15.56;79.00
28175;SHT30;59417;44.788;10.334;2023-04-24T03:40:39;15.56;78.86
28175;SHT30;59417;44.788;10.334;2023-04-24T03:43:16;15.65;77.12
28175;SHT30;59417;44.788;10.334;2023-04-24T03:45:41;15.63;77.14
28175;SHT30;59417;44.788;10.334;2023-04-24T03:48:08;15.80;78.16
28175;SHT30;59417;44.788;10.334;2023-04-24T03:50:34;15.56;79.51
28175;SHT30;59417;44.788;10.334;2023-04-24T03:53:00;15.51;77.87
28175;SHT30;59417;44.788;10.334;2023-04-24T03:55:35;15.65;78.07
28175;SHT30;59417;44.788;10.334;2023-04-24T03:58:00;15.69;79.10
28175;SHT30;59417;44.788;10.334;2023-04-24T04:00:26;15.83;78.07
28175;SHT30;59417;44.788;10.334;2023-04-24T04:03:11;15.48;79.11
28175;SHT30;59417;44.788;10.334;2023-04-24T04:05:37;15.35;80.07
28175;SHT30;59417;44.788;10.334;2023-04-24T04:08:02;15.35;80.59
28175;SHT30;59417;44.788;10.334;2023-04-24T04:10:28;15.36;80.78
28175;SHT30;59417;44.788;10.334;2023-04-24T04:12:53;15.43;80.97
28175;SHT30;59417;44.788;10.334;2023-04-24T04:15:19;15.51;80.06
28175;SHT30;59417;44.788;10.334;2023-04-24T04:17:45;15.41;80.40
28175;SHT30;59417;44.788;10.334;2023-04-24T04:20:11;15.42;80.77
28175;SHT30;59417;44.788;10.334;2023-04-24T04:22:38;15.49;80.67
28175;SHT30;59417;44.788;10.334;2023-04-24T04:25:08;15.61;80.56
28175;SHT30;59417;44.788;10.334;2023-04-24T04:27:34;15.49;80.64
28175;SHT30;59417;44.788;10.334;2023-04-24T04:30:05;15.35;81.24
28175;SHT30;59417;44.788;10.334;2023-04-24T04:32:37;15.48;80.42
28175;SHT30;59417;44.788;10.334;2023-04-24T04:35:04;15.59;80.65
28175;SHT30;59417;44.788;10.334;2023-04-24T04:37:32;15.46;81.28
28175;SHT30;59417;44.788;10.334;2023-04-24T04:40:14;15.43;81.66
28175;SHT30;59417;44.788;10.334;2023-04-24T04:42:49;15.56;81.60
28175;SHT30;59417;44.788;10.334;2023-04-24T04:45:19;15.77;80.23
28175;SHT30;59417;44.788;10.334;2023-04-24T04:48:05;15.84;80.54
28175;SHT30;59417;44.788;10.334;2023-04-24T04:50:35;15.89;80.78
28175;SHT30;59417;44.788;10.334;2023-04-24T04:53:05;15.87;80.12
28175;SHT30;59417;44.788;10.334;2023-04-24T04:55:35;15.93;79.55
28175;SHT30;59417;44.788;10.334;2023-04-24T04:58:10;15.83;78.95
28175;SHT30;59417;44.788;10.334;2023-04-24T05:00:36;15.84;79.12
28175;SHT30;59417;44.788;10.334;2023-04-24T05:03:12;15.83;79.52
28175;SHT30;59417;44.788;10.334;2023-04-24T05:05:38;15.84;79.08
28175;SHT30;59417;44.788;10.334;2023-04-24T05:08:10;15.86;78.91
28175;SHT30;59417;44.788;10.334;2023-04-24T05:10:36;15.83;79.34
28175;SHT30;59417;44.788;10.334;2023-04-24T05:13:03;15.89;78.45
28175;SHT30;59417;44.788;10.334;2023-04-24T05:15:31;15.86;78.50
28175;SHT30;59417;44.788;10.334;2023-04-24T05:17:58;15.70;79.31
28175;SHT30;59417;44.788;10.334;2023-04-24T05:20:26;15.43;80.45
28175;SHT30;59417;44.788;10.334;2023-04-24T05:22:53;15.36;80.64
28175;SHT30;59417;44.788;10.334;2023-04-24T05:25:20;15.22;80.88
28175;SHT30;59417;44.788;10.334;2023-04-24T05:27:52;15.27;81.17
28175;SHT30;59417;44.788;10.334;2023-04-24T05:30:19;15.49;80.53
28175;SHT30;59417;44.788;10.334;2023-04-24T05:32:45;15.43;80.63
28175;SHT30;59417;44.788;10.334;2023-04-24T05:35:12;15.27;81.31
28175;SHT30;59417;44.788;10.334;2023-04-24T05:37:38;15.22;81.25
28175;SHT30;59417;44.788;10.334;2023-04-24T05:40:04;15.16;81.32
28175;SHT30;59417;44.788;10.334;2023-04-24T05:42:31;15.16;81.69
28175;SHT30;59417;44.788;10.334;2023-04-24T05:44:57;15.07;81.98
28175;SHT30;59417;44.788;10.334;2023-04-24T05:47:22;14.81;82.08
28175;SHT30;59417;44.788;10.334;2023-04-24T05:49:49;14.76;82.54
28175;SHT30;59417;44.788;10.334;2023-04-24T05:52:16;14.78;82.16
28175;SHT30;59417;44.788;10.334;2023-04-24T05:54:42;14.83;81.92
28175;SHT30;59417;44.788;10.334;2023-04-24T05:57:10;14.87;82.39
28175;SHT30;59417;44.788;10.334;2023-04-24T05:59:49;14.92;82.09
28175;SHT30;59417;44.788;10.334;2023-04-24T06:02:15;14.84;83.12
28175;SHT30;59417;44.788;10.334;2023-04-24T06:04:41;14.85;83.41
28175;SHT30;59417;44.788;10.334;2023-04-24T06:07:07;14.92;83.51
28175;SHT30;59417;44.788;10.334;2023-04-24T06:09:34;14.98;83.30
28175;SHT30;59417;44.788;10.334;2023-04-24T06:11:59;15.18;83.32
28175;SHT30;59417;44.788;10.334;2023-04-24T06:14:33;15.27;82.20
28175;SHT30;59417;44.788;10.334;2023-04-24T06:17:14;15.21;82.01
28175;SHT30;59417;44.788;10.334;2023-04-24T06:19:40;15.09;83.07
28175;SHT30;59417;44.788;10.334;2023-04-24T06:22:06;15.14;82.33
28175;SHT30;59417;44.788;10.334;2023-04-24T06:24:33;15.04;83.28
28175;SHT30;59417;44.788;10.334;2023-04-24T06:26:59;15.19;82.66
28175;SHT30;59417;44.788;10.334;2023-04-24T06:29:27;15.12;82.77
28175;SHT30;59417;44.788;10.334;2023-04-24T06:31:53;15.12;83.74
28175;SHT30;59417;44.788;10.334;2023-04-24T06:34:18;15.07;84.30
28175;SHT30;59417;44.788;10.334;2023-04-24T06:36:46;15.11;83.81
28175;SHT30;59417;44.788;10.334;2023-04-24T06:39:12;15.19;83.21
28175;SHT30;59417;44.788;10.334;2023-04-24T06:41:38;15.29;82.33
28175;SHT30;59417;44.788;10.334;2023-04-24T06:44:05;15.49;81.95
28175;SHT30;59417;44.788;10.334;2023-04-24T06:46:31;15.62;80.14
28175;SHT30;59417;44.788;10.334;2023-04-24T06:48:57;15.49;80.65
28175;SHT30;59417;44.788;10.334;2023-04-24T06:51:26;15.51;82.14
28175;SHT30;59417;44.788;10.334;2023-04-24T06:53:53;15.53;79.49
28175;SHT30;59417;44.788;10.334;2023-04-24T06:56:19;15.55;80.15
28175;SHT30;59417;44.788;10.334;2023-04-24T06:58:46;15.62;80.33
28175;SHT30;59417;44.788;10.334;2023-04-24T07:01:11;15.56;78.67
28175;SHT30;59417;44.788;10.334;2023-04-24T07:03:37;15.69;79.07
28175;SHT30;59417;44.788;10.334;2023-04-24T07:06:04;15.74;79.22
28175;SHT30;59417;44.788;10.334;2023-04-24T07:08:30;15.87;78.46
28175;SHT30;59417;44.788;10.334;2023-04-24T07:10:56;15.97;78.43
28175;SHT30;59417;44.788;10.334;2023-04-24T07:13:23;15.93;77.04
28175;SHT30;59417;44.788;10.334;2023-04-24T07:15:49;15.93;77.60
28175;SHT30;59417;44.788;10.334;2023-04-24T07:18:22;16.33;79.26
28175;SHT30;59417;44.788;10.334;2023-04-24T07:20:48;16.28;77.73
28175;SHT30;59417;44.788;10.334;2023-04-24T07:23:16;16.35;75.91
28175;SHT30;59417;44.788;10.334;2023-04-24T07:25:42;16.42;76.91
28175;SHT30;59417;44.788;10.334;2023-04-24T07:28:07;16.51;77.22
28175;SHT30;59417;44.788;10.334;2023-04-24T07:30:33;16.40;77.21
28175;SHT30;59417;44.788;10.334;2023-04-24T07:32:59;16.17;76.97
28175;SHT30;59417;44.788;10.334;2023-04-24T07:35:26;16.09;77.33
28175;SHT30;59417;44.788;10.334;2023-04-24T07:37:55;16.14;77.71
28175;SHT30;59417;44.788;10.334;2023-04-24T07:40:21;16.23;77.87
28175;SHT30;59417;44.788;10.334;2023-04-24T07:42:47;16.28;77.12
28175;SHT30;59417;44.788;10.334;2023-04-24T07:45:14;16.31;77.77
28175;SHT30;59417;44.788;10.334;2023-04-24T07:47:41;16.38;76.58
28175;SHT30;59417;44.788;10.334;2023-04-24T07:50:09;16.51;77.31
28175;SHT30;59417;44.788;10.334;2023-04-24T07:52:35;16.62;77.06
28175;SHT30;59417;44.788;10.334;2023-04-24T07:55:01;16.61;74.34
28175;SHT30;59417;44.788;10.334;2023-04-24T07:57:28;16.42;74.05
28175;SHT30;59417;44.788;10.334;2023-04-24T07:59:54;16.57;75.31
28175;SHT30;59417;44.788;10.334;2023-04-24T08:02:20;16.64;75.91
28175;SHT30;59417;44.788;10.334;2023-04-24T08:04:52;16.64;73.86
28175;SHT30;59417;44.788;10.334;2023-04-24T08:07:18;16.72;74.24
28175;SHT30;59417;44.788;10.334;2023-04-24T08:09:44;16.85;73.18
28175;SHT30;59417;44.788;10.334;2023-04-24T08:12:09;16.94;73.20
28175;SHT30;59417;44.788;10.334;2023-04-24T08:14:35;16.89;73.06
28175;SHT30;59417;44.788;10.334;2023-04-24T08:17:01;17.00;73.53
28175;SHT30;59417;44.788;10.334;2023-04-24T08:19:27;17.09;71.81
28175;SHT30;59417;44.788;10.334;2023-04-24T08:21:53;17.12;72.89
28175;SHT30;59417;44.788;10.334;2023-04-24T08:24:19;17.17;71.66
28175;SHT30;59417;44.788;10.334;2023-04-24T08:26:44;17.06;70.36
28175;SHT30;59417;44.788;10.334;2023-04-24T08:29:10;17.16;71.47
28175;SHT30;59417;44.788;10.334;2023-04-24T08:31:36;17.37;71.66
28175;SHT30;59417;44.788;10.334;2023-04-24T08:34:01;17.37;69.13
28175;SHT30;59417;44.788;10.334;2023-04-24T08:36:27;17.51;70.46
28175;SHT30;59417;44.788;10.334;2023-04-24T08:38:53;17.53;69.56
28175;SHT30;59417;44.788;10.334;2023-04-24T08:41:19;17.55;69.23
28175;SHT30;59417;44.788;10.334;2023-04-24T08:43:48;17.57;69.12
28175;SHT30;59417;44.788;10.334;2023-04-24T08:46:15;17.55;69.01
28175;SHT30;59417;44.788;10.334;2023-04-24T08:48:42;17.69;69.65
28175;SHT30;59417;44.788;10.334;2023-04-24T08:51:08;17.73;70.16
28175;SHT30;59417;44.788;10.334;2023-04-24T08:53:35;17.73;68.65
28175;SHT30;59417;44.788;10.334;2023-04-24T08:56:01;17.87;70.06
28175;SHT30;59417;44.788;10.334;2023-04-24T08:58:28;17.78;69.78
28175;SHT30;59417;44.788;10.334;2023-04-24T09:00:54;17.74;69.52
28175;SHT30;59417;44.788;10.334;2023-04-24T09:03:21;17.92;69.91
28175;SHT30;59417;44.788;10.334;2023-04-24T09:05:48;18.16;70.15
28175;SHT30;59417;44.788;10.334;2023-04-24T09:08:19;18.45;69.44
28175;SHT30;59417;44.788;10.334;2023-04-24T09:10:45;18.55;68.04
28175;SHT30;59417;44.788;10.334;2023-04-24T09:13:10;18.63;68.38
28175;SHT30;59417;44.788;10.334;2023-04-24T09:15:39;18.59;67.44
28175;SHT30;59417;44.788;10.334;2023-04-24T09:18:06;18.62;68.30
28175;SHT30;59417;44.788;10.334;2023-04-24T09:20:32;18.21;69.36
28175;SHT30;59417;44.788;10.334;2023-04-24T09:22:58;18.55;68.38
28175;SHT30;59417;44.788;10.334;2023-04-24T09:25:34;18.64;68.17
28175;SHT30;59417;44.788;10.334;2023-04-24T09:28:04;18.48;67.60
28175;SHT30;59417;44.788;10.334;2023-04-24T09:30:32;18.56;68.63
28175;SHT30;59417;44.788;10.334;2023-04-24T09:33:14;18.70;66.76
28175;SHT30;59417;44.788;10.334;2023-04-24T09:35:41;18.64;68.82
28175;SHT30;59417;44.788;10.334;2023-04-24T09:38:08;18.98;67.52
28175;SHT30;59417;44.788;10.334;2023-04-24T09:40:35;18.79;67.47
28175;SHT30;59417;44.788;10.334;2023-04-24T09:43:01;18.48;67.21
28175;SHT30;59417;44.788;10.334;2023-04-24T09:45:38;18.57;67.45
28175;SHT30;59417;44.788;10.334;2023-04-24T09:48:05;18.67;67.57
28175;SHT30;59417;44.788;10.334;2023-04-24T09:50:31;18.55;65.90
28175;SHT30;59417;44.788;10.334;2023-04-24T09:52:59;18.53;64.07
28175;SHT30;59417;44.788;10.334;2023-04-24T09:55:26;18.80;66.10
28175;SHT30;59417;44.788;10.334;2023-04-24T10:00:22;19.14;63.65
28175;SHT30;59417;44.788;10.334;2023-04-24T10:03:05;18.84;64.27
28175;SHT30;59417;44.788;10.334;2023-04-24T10:05:33;18.57;65.39
28175;SHT30;59417;44.788;10.334;2023-04-24T10:08:09;18.88;66.77
28175;SHT30;59417;44.788;10.334;2023-04-24T10:10:39;19.20;63.63
28175;SHT30;59417;44.788;10.334;2023-04-24T10:13:04;19.04;62.63
28175;SHT30;59417;44.788;10.334;2023-04-24T10:15:30;18.86;64.73
28175;SHT30;59417;44.788;10.334;2023-04-24T10:17:58;19.03;65.47
28175;SHT30;59417;44.788;10.334;2023-04-24T10:20:27;19.39;67.56
28175;SHT30;59417;44.788;10.334;2023-04-24T10:22:55;19.51;65.17
28175;SHT30;59417;44.788;10.334;2023-04-24T10:25:24;19.49;63.19
28175;SHT30;59417;44.788;10.334;2023-04-24T10:27:52;19.42;64.15
28175;SHT30;59417;44.788;10.334;2023-04-24T10:30:19;19.48;65.25
28175;SHT30;59417;44.788;10.334;2023-04-24T10:32:45;19.49;63.44
28175;SHT30;59417;44.788;10.334;2023-04-24T10:35:13;19.38;64.35
28175;SHT30;59417;44.788;10.334;2023-04-24T10:37:48;19.42;62.96
28175;SHT30;59417;44.788;10.334;2023-04-24T10:40:27;19.45;61.96
28175;SHT30;59417;44.788;10.334;2023-04-24T10:42:53;19.66;60.85
28175;SHT30;59417;44.788;10.334;2023-04-24T10:45:20;19.87;61.16
28175;SHT30;59417;44.788;10.334;2023-04-24T10:50:41;19.38;58.21
28175;SHT30;59417;44.788;10.334;2023-04-24T10:53:14;19.68;59.91
28175;SHT30;59417;44.788;10.334;2023-04-24T10:58:07;20.10;59.17
28175;SHT30;59417;44.788;10.334;2023-04-24T11:00:36;20.29;58.29
28175;SHT30;59417;44.788;10.334;2023-04-24T11:03:04;20.40;58.61
28175;SHT30;59417;44.788;10.334;2023-04-24T11:05:54;20.14;58.89
28175;SHT30;59417;44.788;10.334;2023-04-24T11:08:29;20.12;58.43
28175;SHT30;59417;44.788;10.334;2023-04-24T11:11:13;20.05;60.01
28175;SHT30;59417;44.788;10.334;2023-04-24T11:16:53;20.51;58.70
28175;SHT30;59417;44.788;10.334;2023-04-24T11:19:26;20.82;59.57
28175;SHT30;59417;44.788;10.334;2023-04-24T11:22:02;20.71;56.25
28175;SHT30;59417;44.788;10.334;2023-04-24T11:24:53;20.55;57.39
28175;SHT30;59417;44.788;10.334;2023-04-24T11:27:39;20.65;56.84
28175;SHT30;59417;44.788;10.334;2023-04-24T11:30:05;20.84;57.81
28175;SHT30;59417;44.788;10.334;2023-04-24T11:35:13;21.52;56.96
28175;SHT30;59417;44.788;10.334;2023-04-24T11:37:44;21.31;55.61
28175;SHT30;59417;44.788;10.334;2023-04-24T11:40:12;20.71;56.07
28175;SHT30;59417;44.788;10.334;2023-04-24T11:42:40;21.04;56.64
28175;SHT30;59417;44.788;10.334;2023-04-24T11:45:30;21.08;56.30
28175;SHT30;59417;44.788;10.334;2023-04-24T11:47:55;21.33;58.47
28175;SHT30;59417;44.788;10.334;2023-04-24T11:50:25;21.19;55.45
28175;SHT30;59417;44.788;10.334;2023-04-24T11:52:53;21.35;57.91
28175;SHT30;59417;44.788;10.334;2023-04-24T11:57:45;21.36;55.42
28175;SHT30;59417;44.788;10.334;2023-04-24T12:00:19;21.23;56.34
28175;SHT30;59417;44.788;10.334;2023-04-24T12:02:46;21.20;57.14
28175;SHT30;59417;44.788;10.334;2023-04-24T12:05:28;21.78;57.88
28175;SHT30;59417;44.788;10.334;2023-04-24T12:07:56;21.93;54.46
28175;SHT30;59417;44.788;10.334;2023-04-24T12:10:24;21.84;54.35
28175;SHT30;59417;44.788;10.334;2023-04-24T12:12:51;21.89;54.03
28175;SHT30;59417;44.788;10.334;2023-04-24T12:15:18;21.83;53.31
28175;SHT30;59417;44.788;10.334;2023-04-24T12:17:45;21.43;53.64
28175;SHT30;59417;44.788;10.334;2023-04-24T12:20:11;21.55;54.60
28175;SHT30;59417;44.788;10.334;2023-04-24T12:22:47;21.46;55.10
28175;SHT30;59417;44.788;10.334;2023-04-24T12:25:14;21.78;55.09
28175;SHT30;59417;44.788;10.334;2023-04-24T12:27:40;22.03;53.61
28175;SHT30;59417;44.788;10.334;2023-04-24T12:30:13;22.10;52.48
28175;SHT30;59417;44.788;10.334;2023-04-24T12:32:46;22.49;52.78
28175;SHT30;59417;44.788;10.334;2023-04-24T12:35:12;21.98;51.09
28175;SHT30;59417;44.788;10.334;2023-04-24T12:37:38;22.31;53.03
28175;SHT30;59417;44.788;10.334;2023-04-24T12:40:09;22.51;50.77
28175;SHT30;59417;44.788;10.334;2023-04-24T12:42:41;22.96;53.02
28175;SHT30;59417;44.788;10.334;2023-04-24T12:45:08;22.72;50.22
28175;SHT30;59417;44.788;10.334;2023-04-24T12:47:34;22.85;49.51
28175;SHT30;59417;44.788;10.334;2023-04-24T12:50:00;22.95;50.21
28175;SHT30;59417;44.788;10.334;2023-04-24T12:52:28;23.19;49.63
28175;SHT30;59417;44.788;10.334;2023-04-24T12:54:57;23.41;50.28
28175;SHT30;59417;44.788;10.334;2023-04-24T12:57:23;23.68;49.82
28175;SHT30;59417;44.788;10.334;2023-04-24T12:59:49;22.89;46.86
28175;SHT30;59417;44.788;10.334;2023-04-24T13:02:16;22.73;45.59
28175;SHT30;59417;44.788;10.334;2023-04-24T13:04:46;22.73;47.95
28175;SHT30;59417;44.788;10.334;2023-04-24T13:07:13;22.76;47.50
28175;SHT30;59417;44.788;10.334;2023-04-24T13:09:39;22.57;47.76
28175;SHT30;59417;44.788;10.334;2023-04-24T13:12:05;22.57;46.82
28175;SHT30;59417;44.788;10.334;2023-04-24T13:14:31;22.45;46.16
28175;SHT30;59417;44.788;10.334;2023-04-24T13:16:57;22.41;47.35
28175;SHT30;59417;44.788;10.334;2023-04-24T13:19:27;22.62;47.54
28175;SHT30;59417;44.788;10.334;2023-04-24T13:21:55;22.96;47.32
28175;SHT30;59417;44.788;10.334;2023-04-24T13:24:21;23.22;47.42
28175;SHT30;59417;44.788;10.334;2023-04-24T13:26:50;23.31;46.99
28175;SHT30;59417;44.788;10.334;2023-04-24T13:29:16;23.29;47.91
28175;SHT30;59417;44.788;10.334;2023-04-24T13:31:42;23.30;48.96
28175;SHT30;59417;44.788;10.334;2023-04-24T13:34:08;23.40;46.57
28175;SHT30;59417;44.788;10.334;2023-04-24T13:36:33;23.64;47.60
28175;SHT30;59417;44.788;10.334;2023-04-24T13:39:00;23.47;46.13
28175;SHT30;59417;44.788;10.334;2023-04-24T13:41:26;23.31;47.30
28175;SHT30;59417;44.788;10.334;2023-04-24T13:46:26;23.50;47.65
28175;SHT30;59417;44.788;10.334;2023-04-24T13:48:52;23.47;47.50
28175;SHT30;59417;44.788;10.334;2023-04-24T13:51:25;23.53;46.22
28175;SHT30;59417;44.788;10.334;2023-04-24T13:54:14;23.43;44.63
28175;SHT30;59417;44.788;10.334;2023-04-24T13:56:43;23.39;44.83
28175;SHT30;59417;44.788;10.334;2023-04-24T13:59:42;22.85;45.51
28175;SHT30;59417;44.788;10.334;2023-04-24T14:02:11;22.65;46.36
28175;SHT30;59417;44.788;10.334;2023-04-24T14:04:40;22.71;46.64
28175;SHT30;59417;44.788;10.334;2023-04-24T14:07:05;22.90;47.11
28175;SHT30;59417;44.788;10.334;2023-04-24T14:13:48;23.24;48.08
28175;SHT30;59417;44.788;10.334;2023-04-24T14:16:17;23.27;46.40
28175;SHT30;59417;44.788;10.334;2023-04-24T14:25:49;23.65;45.87
28175;SHT30;59417;44.788;10.334;2023-04-24T14:35:36;23.78;42.60
28175;SHT30;59417;44.788;10.334;2023-04-24T14:38:04;23.67;42.26
28175;SHT30;59417;44.788;10.334;2023-04-24T14:40:33;23.68;41.92
28175;SHT30;59417;44.788;10.334;2023-04-24T14:43:08;23.64;40.91
28175;SHT30;59417;44.788;10.334;2023-04-24T14:49:40;23.64;39.39
28175;SHT30;59417;44.788;10.334;2023-04-24T14:52:17;23.55;38.57
28175;SHT30;59417;44.788;10.334;2023-04-24T14:55:06;23.50;38.95
28175;SHT30;59417;44.788;10.334;2023-04-24T14:58:30;23.65;39.72
28175;SHT30;59417;44.788;10.334;2023-04-24T15:01:09;23.44;40.51
28175;SHT30;59417;44.788;10.334;2023-04-24T15:03:38;23.33;38.52
28175;SHT30;59417;44.788;10.334;2023-04-24T15:06:10;23.15;38.41
28175;SHT30;59417;44.788;10.334;2023-04-24T15:08:49;23.26;38.10
28175;SHT30;59417;44.788;10.334;2023-04-24T15:11:24;23.34;39.61
28175;SHT30;59417;44.788;10.334;2023-04-24T15:14:00;23.40;39.40
28175;SHT30;59417;44.788;10.334;2023-04-24T15:16:35;23.33;39.27
28175;SHT30;59417;44.788;10.334;2023-04-24T15:23:07;23.22;40.44
28175;SHT30;59417;44.788;10.334;2023-04-24T16:08:16;22.48;45.03
28175;SHT30;59417;44.788;10.334;2023-04-24T16:10:51;22.65;45.12
28175;SHT30;59417;44.788;10.334;2023-04-24T16:13:35;22.65;45.22
28175;SHT30;59417;44.788;10.334;2023-04-24T16:16:06;22.32;45.78
28175;SHT30;59417;44.788;10.334;2023-04-24T16:19:00;22.32;46.35
28175;SHT30;59417;44.788;10.334;2023-04-24T16:24:54;22.35;46.39
28175;SHT30;59417;44.788;10.334;2023-04-24T16:28:09;22.37;46.27
28175;SHT30;59417;44.788;10.334;2023-04-24T16:30:41;22.32;46.67
28175;SHT30;59417;44.788;10.334;2023-04-24T16:33:24;22.32;46.66
28175;SHT30;59417;44.788;10.334;2023-04-24T16:36:32;22.45;46.67
28175;SHT30;59417;44.788;10.334;2023-04-24T16:46:38;22.27;46.84
28175;SHT30;59417;44.788;10.334;2023-04-24T17:29:31;21.11;51.68
28175;SHT30;59417;44.788;10.334;2023-04-24T17:31:57;21.02;52.04
28175;SHT30;59417;44.788;10.334;2023-04-24T17:34:22;21.06;52.33
28175;SHT30;59417;44.788;10.334;2023-04-24T17:36:48;20.91;52.57
28175;SHT30;59417;44.788;10.334;2023-04-24T17:43:28;20.78;53.53
28175;SHT30;59417;44.788;10.334;2023-04-24T18:09:39;20.09;55.60
28175;SHT30;59417;44.788;10.334;2023-04-24T18:35:43;19.42;57.61